Time;durP1;ratioP1;P1;durP2;ratioP2;P2;SDS_P1;SDS_P2;PMS_P1;PMS_P2;Temp;Humidity;BMP_temperature;BMP_pressure;BME280_temperature;BME280_humidity;BME280_pressure;Samples;Min_cycle;Max_cycle;Signal;HPM_P1;HPM_P2
2022/08/21 00:01:09;;;;;;;3.70;3.13;;;19.80;57.00;;;;;;5019324;28;20037;-51
2022/08/21 00:03:36;;;;;;;5.55;4.07;;;19.70;57.20;;;;;;5024952;28;20038;-51
2022/08/21 00:06:03;;;;;;;7.32;3.72;;;19.70;57.30;;;;;;5017404;28;20046;-47
2022/08/21 00:08:37;;;;;;;4.10;3.70;;;19.70;57.30;;;;;;5012891;28;20466;-49
2022/08/21 00:11:05;;;;;;;3.95;3.55;;;19.60;57.30;;;;;;5022274;28;20045;-51
2022/08/21 00:13:32;;;;;;;4.40;3.30;;;19.60;57.30;;;;;;5030655;28;20048;-51
2022/08/21 00:16:02;;;;;;;3.60;2.97;;;19.60;57.30;;;;;;5012535;28;20082;-51
2022/08/21 00:18:35;;;;;;;3.25;3.00;;;19.50;57.50;;;;;;5008809;28;20046;-52
2022/08/21 00:21:05;;;;;;;4.25;3.13;;;19.50;57.50;;;;;;5018875;28;20672;-49
2022/08/21 00:23:34;;;;;;;7.43;3.72;;;19.50;57.40;;;;;;5025658;28;20119;-46
2022/08/21 00:26:01;;;;;;;4.10;3.33;;;19.50;57.60;;;;;;5018838;28;20534;-51
2022/08/21 00:28:35;;;;;;;4.00;2.80;;;19.40;57.50;;;;;;5022088;28;20461;-51
2022/08/21 00:31:05;;;;;;;4.32;2.92;;;19.40;57.70;;;;;;5030845;28;20045;-53
2022/08/21 00:33:34;;;;;;;3.13;2.75;;;19.40;57.70;;;;;;5013535;28;20129;-49
2022/08/21 00:36:01;;;;;;;4.63;3.17;;;19.40;57.90;;;;;;5012471;28;20049;-47
2022/08/21 00:38:29;;;;;;;3.17;2.80;;;19.30;57.60;;;;;;5020060;28;20049;-50
2022/08/21 00:41:01;;;;;;;4.47;2.97;;;19.30;57.70;;;;;;5013668;28;20050;-48
2022/08/21 00:43:51;;;;;;;2.40;2.20;;;19.30;58.00;;;;;;5009679;28;20050;-49
2022/08/21 00:46:18;;;;;;;5.13;2.17;;;19.30;57.90;;;;;;5006628;28;20045;-49
2022/08/21 00:48:52;;;;;;;3.30;2.53;;;19.20;57.90;;;;;;5018448;28;20139;-48
2022/08/21 00:51:32;;;;;;;2.42;2.20;;;19.20;57.90;;;;;;4989918;28;20041;-48
2022/08/21 00:54:06;;;;;;;2.10;2.00;;;19.20;57.90;;;;;;4995582;28;20038;-50
2022/08/21 00:56:51;;;;;;;3.50;2.30;;;19.10;57.80;;;;;;5013939;28;20107;-46
2022/08/21 00:59:20;;;;;;;3.10;2.80;;;19.10;57.80;;;;;;5021705;28;20115;-49
2022/08/21 01:01:52;;;;;;;3.33;2.30;;;19.10;57.80;;;;;;5027003;28;20053;-48
2022/08/21 01:04:22;;;;;;;4.07;2.45;;;19.00;57.70;;;;;;5014570;28;20052;-52
2022/08/21 01:06:49;;;;;;;2.85;2.38;;;19.00;57.90;;;;;;5005704;28;20625;-49
2022/08/21 01:09:18;;;;;;;2.40;2.13;;;19.00;58.50;;;;;;5020109;28;20100;-51
2022/08/21 01:11:45;;;;;;;2.70;2.30;;;18.90;58.00;;;;;;5025550;28;20084;-49
2022/08/21 01:14:14;;;;;;;6.35;2.50;;;18.90;58.00;;;;;;5005922;28;20450;-51
2022/08/21 01:16:46;;;;;;;2.60;2.35;;;18.90;58.00;;;;;;5011295;28;20049;-47
2022/08/21 01:19:25;;;;;;;3.55;2.72;;;18.90;58.30;;;;;;5002825;28;20057;-52
2022/08/21 01:21:59;;;;;;;2.45;2.25;;;18.80;58.00;;;;;;5006103;28;20494;-50
2022/08/21 01:24:28;;;;;;;10.32;2.70;;;18.80;58.10;;;;;;5016554;28;20052;-51
2022/08/21 01:26:55;;;;;;;2.60;2.40;;;18.80;58.80;;;;;;5020794;28;20067;-51
2022/08/21 01:29:57;;;;;;;2.88;2.45;;;18.70;58.20;;;;;;5029950;28;20060;-51
2022/08/21 01:32:25;;;;;;;7.18;2.50;;;18.70;58.80;;;;;;5011111;28;20556;-50
2022/08/21 01:34:54;;;;;;;3.83;2.58;;;18.70;58.10;;;;;;5019706;28;20100;-51
2022/08/21 01:37:24;;;;;;;2.42;2.10;;;18.70;58.40;;;;;;4989723;28;20046;-47
2022/08/21 01:39:52;;;;;;;2.15;1.98;;;18.70;58.40;;;;;;4995040;28;20057;-49
2022/08/21 01:42:24;;;;;;;2.85;2.65;;;18.60;58.30;;;;;;5024510;28;20049;-51
2022/08/21 01:44:54;;;;;;;4.55;3.17;;;18.60;58.40;;;;;;5010244;28;20049;-50
2022/08/21 01:47:22;;;;;;;7.22;2.80;;;18.60;58.70;;;;;;5009477;28;20034;-48
2022/08/21 01:49:54;;;;;;;2.35;2.08;;;18.60;58.60;;;;;;5007676;28;20039;-50
2022/08/21 01:52:21;;;;;;;2.40;2.20;;;18.50;58.50;;;;;;5017234;28;20045;-50
2022/08/21 01:54:50;;;;;;;2.75;2.55;;;18.50;58.50;;;;;;5021987;28;20033;-50
2022/08/21 01:57:26;;;;;;;3.10;2.75;;;18.50;58.60;;;;;;5026754;28;20073;-50
2022/08/21 01:59:53;;;;;;;2.78;2.53;;;18.50;58.50;;;;;;5011875;28;20045;-51
2022/08/21 02:02:21;;;;;;;4.65;2.67;;;18.50;59.30;;;;;;5017050;28;20129;-46
2022/08/21 02:04:48;;;;;;;2.47;2.28;;;18.50;58.70;;;;;;5010311;28;20190;-51
2022/08/21 02:07:21;;;;;;;2.50;2.30;;;18.40;58.70;;;;;;5005371;28;20037;-47
2022/08/21 02:09:47;;;;;;;2.53;2.33;;;18.40;58.90;;;;;;5009492;28;20038;-51
2022/08/21 02:12:19;;;;;;;2.47;2.30;;;18.40;58.80;;;;;;5014997;28;20037;-46
2022/08/21 02:14:47;;;;;;;2.63;2.42;;;18.30;58.70;;;;;;5024562;28;20041;-51
2022/08/21 02:17:14;;;;;;;2.55;2.35;;;18.30;58.70;;;;;;5012297;28;20080;-51
2022/08/21 02:19:43;;;;;;;2.38;2.17;;;18.40;58.90;;;;;;5011690;28;20053;-49
2022/08/21 02:22:15;;;;;;;3.72;2.47;;;18.30;58.80;;;;;;5027221;28;20390;-50
2022/08/21 02:24:44;;;;;;;3.15;2.60;;;18.20;58.80;;;;;;5031998;28;20053;-50
2022/08/21 02:27:24;;;;;;;2.60;2.40;;;18.20;58.90;;;;;;5010664;28;20165;-50
2022/08/21 02:29:57;;;;;;;3.10;2.80;;;18.20;58.90;;;;;;5011311;28;20104;-50
2022/08/21 02:32:25;;;;;;;3.58;2.50;;;18.20;58.90;;;;;;5023581;28;20046;-51
2022/08/21 02:34:53;;;;;;;5.07;2.33;;;18.20;59.00;;;;;;5033869;28;20049;-48
2022/08/21 02:37:20;;;;;;;4.03;2.28;;;18.10;59.10;;;;;;5018127;28;20053;-49
2022/08/21 02:39:46;;;;;;;6.72;2.67;;;18.10;59.10;;;;;;5021948;28;20092;-50
2022/08/21 02:42:13;;;;;;;2.60;2.40;;;18.10;59.10;;;;;;5023843;28;20608;-50
2022/08/21 02:44:42;;;;;;;3.60;2.88;;;18.00;59.10;;;;;;5033315;28;20120;-47
2022/08/21 02:47:11;;;;;;;3.08;2.88;;;18.10;59.10;;;;;;5019196;28;20046;-48
2022/08/21 02:49:40;;;;;;;9.25;3.10;;;18.00;59.10;;;;;;5022492;28;20486;-50
2022/08/21 02:52:07;;;;;;;6.72;3.35;;;18.00;59.20;;;;;;5029897;28;20038;-53
2022/08/21 02:54:34;;;;;;;3.25;2.38;;;18.00;59.30;;;;;;5033164;28;20046;-52
2022/08/21 02:57:01;;;;;;;3.90;2.97;;;18.00;59.40;;;;;;5015915;28;20041;-50
2022/08/21 02:59:27;;;;;;;3.50;3.00;;;18.00;59.50;;;;;;5022425;28;20048;-52
2022/08/21 03:01:55;;;;;;;2.95;2.63;;;17.90;59.50;;;;;;5018533;28;20873;-51
2022/08/21 03:04:22;;;;;;;3.25;3.05;;;17.90;59.40;;;;;;5022801;28;20129;-51
2022/08/21 03:06:49;;;;;;;4.53;3.15;;;17.90;59.50;;;;;;5006971;28;20093;-50
2022/08/21 03:09:15;;;;;;;4.72;3.20;;;17.90;59.60;;;;;;5025298;28;20038;-49
2022/08/21 03:11:43;;;;;;;4.50;3.83;;;17.90;59.60;;;;;;5026841;28;20075;-51
2022/08/21 03:14:13;;;;;;;6.05;3.33;;;17.80;59.60;;;;;;5032617;28;20064;-51
2022/08/21 03:16:42;;;;;;;7.10;3.58;;;17.80;59.50;;;;;;5014580;28;20060;-47
2022/08/21 03:19:10;;;;;;;3.60;3.30;;;17.80;59.50;;;;;;5014417;28;20042;-47
2022/08/21 03:21:39;;;;;;;4.55;3.58;;;17.80;59.40;;;;;;5028628;28;20034;-52
2022/08/21 03:24:06;;;;;;;3.75;3.45;;;17.80;59.60;;;;;;5009537;28;20503;-51
2022/08/21 03:26:40;;;;;;;4.90;4.13;;;17.70;59.60;;;;;;5020433;28;20568;-46
2022/08/21 03:29:07;;;;;;;5.72;3.35;;;17.70;59.70;;;;;;5023867;28;20037;-52
2022/08/21 03:31:39;;;;;;;4.68;3.75;;;17.70;59.80;;;;;;5025826;28;20089;-51
2022/08/21 03:34:06;;;;;;;4.03;3.67;;;17.70;59.90;;;;;;5015668;28;20030;-50
2022/08/21 03:36:38;;;;;;;5.22;3.95;;;17.70;59.90;;;;;;5023384;28;20128;-46
2022/08/21 03:39:05;;;;;;;4.10;3.55;;;17.70;60.00;;;;;;5031743;28;20057;-51
2022/08/21 03:41:32;;;;;;;4.22;3.83;;;17.60;59.90;;;;;;5017360;28;20045;-51
2022/08/21 03:44:01;;;;;;;4.28;3.55;;;17.60;60.00;;;;;;5009143;28;20220;-52
2022/08/21 03:46:37;;;;;;;5.22;4.43;;;17.60;60.20;;;;;;5013872;28;20117;-50
2022/08/21 03:49:06;;;;;;;6.22;4.75;;;17.60;60.70;;;;;;5029676;28;20076;-47
2022/08/21 03:51:35;;;;;;;7.32;4.90;;;17.60;60.70;;;;;;5020371;28;20120;-51
2022/08/21 03:54:04;;;;;;;6.05;4.50;;;17.60;60.90;;;;;;5023846;28;20564;-50
2022/08/21 03:56:33;;;;;;;5.78;4.57;;;17.60;61.40;;;;;;5024987;28;20046;-51
2022/08/21 03:59:03;;;;;;;6.40;4.72;;;17.60;61.60;;;;;;5031512;28;20060;-52
2022/08/21 04:01:32;;;;;;;5.10;4.60;;;17.70;61.80;;;;;;5013638;28;20073;-49
2022/08/21 04:04:03;;;;;;;5.88;4.63;;;17.60;61.60;;;;;;5025042;28;20418;-48
2022/08/21 04:06:34;;;;;;;6.35;4.38;;;17.60;61.90;;;;;;5007831;28;20125;-47
2022/08/21 04:09:03;;;;;;;8.48;4.88;;;17.70;61.90;;;;;;5021369;28;20128;-51
2022/08/21 04:11:30;;;;;;;5.03;4.60;;;17.70;62.00;;;;;;5023864;28;20033;-49
2022/08/21 04:13:58;;;;;;;7.85;5.20;;;17.70;62.10;;;;;;5022765;28;20115;-51
2022/08/21 04:16:30;;;;;;;7.78;4.80;;;17.70;62.20;;;;;;5012927;28;20138;-48
2022/08/21 04:19:01;;;;;;;7.10;4.90;;;17.70;62.20;;;;;;5011684;28;20042;-46
2022/08/21 04:21:29;;;;;;;7.05;4.68;;;17.80;62.30;;;;;;5015916;28;20430;-47
2022/08/21 04:23:59;;;;;;;5.03;3.97;;;17.80;62.30;;;;;;5016759;28;20068;-49
2022/08/21 04:26:26;;;;;;;6.55;5.03;;;17.80;62.20;;;;;;5031798;28;20655;-53
2022/08/21 04:28:57;;;;;;;5.95;4.55;;;17.80;63.00;;;;;;5023992;28;20414;-50
2022/08/21 04:31:25;;;;;;;6.80;4.85;;;17.80;62.40;;;;;;5023589;28;20116;-50
2022/08/21 04:33:52;;;;;;;4.43;4.03;;;17.80;62.40;;;;;;5022345;28;20041;-47
2022/08/21 04:36:23;;;;;;;5.70;4.38;;;17.90;62.40;;;;;;5030470;28;20033;-50
2022/08/21 04:38:51;;;;;;;5.38;3.88;;;17.90;62.40;;;;;;5007153;28;20498;-49
2022/08/21 04:41:20;;;;;;;5.22;4.22;;;17.90;63.00;;;;;;5015066;28;20053;-51
2022/08/21 04:43:56;;;;;;;6.28;4.13;;;17.90;62.40;;;;;;5023019;28;20041;-51
2022/08/21 04:46:25;;;;;;;5.10;3.72;;;18.00;62.50;;;;;;5031477;28;20050;-53
2022/08/21 04:48:51;;;;;;;5.30;4.10;;;18.00;62.20;;;;;;5019722;28;20045;-51
2022/08/21 04:51:27;;;;;;;4.97;4.00;;;18.00;62.30;;;;;;5022778;28;20670;-51
2022/08/21 04:54:14;;;;;;;5.15;3.85;;;18.00;62.50;;;;;;5026749;28;20042;-48
2022/08/21 04:56:54;;;;;;;6.43;4.57;;;18.00;62.60;;;;;;5025273;28;20478;-52
2022/08/21 04:59:27;;;;;;;6.25;4.78;;;18.00;62.80;;;;;;5010296;28;20092;-52
2022/08/21 05:01:56;;;;;;;5.68;4.70;;;18.10;63.00;;;;;;5019003;28;20038;-51
2022/08/21 05:04:28;;;;;;;7.03;4.93;;;18.10;62.10;;;;;;5031096;28;20449;-52
2022/08/21 05:06:59;;;;;;;6.75;4.32;;;18.10;62.20;;;;;;5006890;28;20061;-50
2022/08/21 05:09:27;;;;;;;5.45;4.22;;;18.10;62.20;;;;;;5019821;28;20038;-51
2022/08/21 05:12:04;;;;;;;5.38;3.38;;;18.20;62.10;;;;;;5026924;28;20041;-48
2022/08/21 05:14:31;;;;;;;6.75;3.65;;;18.20;62.60;;;;;;5017717;28;20046;-51
2022/08/21 05:16:58;;;;;;;5.60;3.80;;;18.10;62.00;;;;;;5007625;28;20634;-50
2022/08/21 05:19:28;;;;;;;6.43;3.83;;;18.20;62.10;;;;;;5015216;28;20049;-48
2022/08/21 05:21:54;;;;;;;6.25;3.47;;;18.20;62.00;;;;;;5013978;28;20038;-46
2022/08/21 05:24:21;;;;;;;4.72;3.20;;;18.20;62.10;;;;;;5009101;28;20452;-48
2022/08/21 05:26:50;;;;;;;5.05;3.60;;;18.20;62.40;;;;;;5019947;28;20040;-50
2022/08/21 05:29:21;;;;;;;4.35;3.38;;;18.20;62.50;;;;;;5022376;28;20100;-50
2022/08/21 05:31:48;;;;;;;7.65;3.90;;;18.30;62.50;;;;;;5028911;28;20042;-46
2022/08/21 05:34:23;;;;;;;5.00;3.05;;;18.30;62.50;;;;;;5017700;28;20042;-48
2022/08/21 05:36:50;;;;;;;6.27;3.30;;;18.30;62.80;;;;;;5017585;28;20551;-50
2022/08/21 05:39:17;;;;;;;5.80;3.47;;;18.30;62.40;;;;;;5021889;28;20117;-51
2022/08/21 05:41:45;;;;;;;3.90;3.40;;;18.40;62.50;;;;;;5030648;28;20041;-46
2022/08/21 05:44:12;;;;;;;5.85;3.30;;;18.40;62.50;;;;;;5030638;28;20035;-51
2022/08/21 05:46:42;;;;;;;7.20;3.47;;;18.40;62.60;;;;;;5020442;28;20088;-52
2022/08/21 05:49:11;;;;;;;3.63;3.28;;;18.50;62.60;;;;;;5028916;28;20048;-51
2022/08/21 05:51:41;;;;;;;5.15;3.08;;;18.50;62.60;;;;;;5017410;28;20052;-48
2022/08/21 05:54:08;;;;;;;7.35;3.42;;;18.50;62.90;;;;;;5011230;28;20066;-48
2022/08/21 05:56:34;;;;;;;6.03;3.55;;;18.50;62.70;;;;;;5003075;28;20518;-52
2022/08/21 05:59:01;;;;;;;6.05;3.05;;;18.50;62.50;;;;;;5009457;28;20112;-50
2022/08/21 06:01:34;;;;;;;5.97;3.95;;;18.60;62.50;;;;;;5010929;28;20456;-49
2022/08/21 06:04:01;;;;;;;7.78;3.63;;;18.60;62.70;;;;;;5009984;28;20046;-51
2022/08/21 06:06:28;;;;;;;6.10;3.25;;;18.60;62.50;;;;;;5010329;28;20133;-46
2022/08/21 06:08:55;;;;;;;5.05;3.15;;;18.60;62.50;;;;;;5013139;28;20093;-51
2022/08/21 06:11:21;;;;;;;4.28;2.75;;;18.70;62.60;;;;;;5014456;28;20040;-48
2022/08/21 06:13:54;;;;;;;4.55;2.72;;;18.70;62.50;;;;;;5009256;28;20088;-49
2022/08/21 06:16:22;;;;;;;7.47;3.72;;;18.70;62.60;;;;;;5017838;28;20560;-47
2022/08/21 06:18:49;;;;;;;6.95;3.58;;;18.80;62.40;;;;;;5013666;28;20048;-51
2022/08/21 06:21:16;;;;;;;3.38;2.47;;;18.80;62.30;;;;;;5013397;28;20041;-47
2022/08/21 06:23:43;;;;;;;5.15;3.20;;;18.80;62.40;;;;;;5024215;28;20512;-48
2022/08/21 06:26:13;;;;;;;6.35;3.05;;;18.80;62.20;;;;;;5016347;28;20401;-47
2022/08/21 06:28:41;;;;;;;4.20;2.70;;;18.90;62.30;;;;;;5008745;28;20802;-51
2022/08/21 06:31:18;;;;;;;6.13;3.05;;;18.90;62.90;;;;;;5015976;28;20112;-52
2022/08/21 06:33:46;;;;;;;4.43;2.53;;;19.00;62.50;;;;;;5016081;28;20041;-52
2022/08/21 06:36:13;;;;;;;5.55;2.50;;;19.00;62.20;;;;;;5018381;28;20580;-53
2022/08/21 06:38:40;;;;;;;5.93;2.35;;;19.10;62.20;;;;;;5013430;28;20391;-50
2022/08/21 06:41:07;;;;;;;10.48;2.85;;;19.10;62.20;;;;;;5012453;28;20037;-51
2022/08/21 06:43:36;;;;;;;4.38;2.30;;;19.20;62.20;;;;;;5016592;28;20583;-52
2022/08/21 06:46:07;;;;;;;6.93;2.17;;;19.20;62.10;;;;;;5010466;28;20654;-50
2022/08/21 06:48:34;;;;;;;4.32;2.63;;;19.30;61.90;;;;;;5011923;28;20041;-48
2022/08/21 06:51:01;;;;;;;2.92;1.83;;;19.30;61.90;;;;;;5016076;28;20103;-47
2022/08/21 06:53:28;;;;;;;3.53;1.95;;;19.30;61.70;;;;;;5020133;28;20125;-51
2022/08/21 06:55:54;;;;;;;3.90;2.22;;;19.40;62.00;;;;;;5025339;28;20034;-47
2022/08/21 06:58:24;;;;;;;8.00;2.30;;;19.40;61.80;;;;;;5012728;28;20462;-52
2022/08/21 07:00:51;;;;;;;4.82;2.70;;;19.50;62.00;;;;;;5009188;28;20485;-50
2022/08/21 07:03:27;;;;;;;11.00;2.70;;;19.50;61.70;;;;;;5018809;28;20053;-48
2022/08/21 07:05:54;;;;;;;4.75;2.60;;;19.60;61.80;;;;;;5028221;28;20053;-47
2022/08/21 07:08:21;;;;;;;4.65;2.08;;;19.60;61.40;;;;;;5020766;28;20384;-52
2022/08/21 07:10:48;;;;;;;4.25;2.75;;;19.60;61.20;;;;;;5013381;28;20477;-47
2022/08/21 07:13:16;;;;;;;6.38;3.00;;;19.70;61.30;;;;;;5023885;28;20033;-53
2022/08/21 07:15:42;;;;;;;5.85;2.60;;;19.70;61.60;;;;;;5011634;28;20069;-51
2022/08/21 07:18:09;;;;;;;5.05;2.78;;;19.80;61.50;;;;;;5012378;28;20088;-51
2022/08/21 07:20:36;;;;;;;5.68;2.90;;;19.80;61.00;;;;;;5027092;28;20038;-50
2022/08/21 07:23:06;;;;;;;3.88;2.45;;;19.90;61.20;;;;;;5017480;28;20100;-48
2022/08/21 07:25:33;;;;;;;4.22;1.80;;;19.90;61.30;;;;;;5010299;28;20100;-47
2022/08/21 07:28:00;;;;;;;3.60;2.00;;;20.00;61.10;;;;;;5014184;28;20113;-52
2022/08/21 07:30:27;;;;;;;6.30;2.17;;;20.00;61.10;;;;;;5011487;28;20042;-47
2022/08/21 07:32:54;;;;;;;5.78;1.90;;;20.10;60.90;;;;;;5018891;28;20057;-52
2022/08/21 07:35:22;;;;;;;4.10;1.58;;;20.10;60.70;;;;;;5008157;28;20048;-48
2022/08/21 07:37:49;;;;;;;8.32;1.90;;;20.20;60.40;;;;;;5011274;28;20430;-51
2022/08/21 07:40:16;;;;;;;3.17;2.78;;;20.20;60.20;;;;;;5024245;28;20049;-47
2022/08/21 07:42:46;;;;;;;4.43;1.80;;;20.30;60.30;;;;;;5010876;28;20053;-52
2022/08/21 07:45:13;;;;;;;4.78;2.38;;;20.30;59.80;;;;;;5012258;28;20042;-51
2022/08/21 07:47:40;;;;;;;5.47;2.30;;;20.30;59.80;;;;;;5015865;28;20465;-48
2022/08/21 07:50:11;;;;;;;4.05;1.63;;;20.40;59.80;;;;;;5023308;28;20080;-48
2022/08/21 07:52:39;;;;;;;3.60;1.52;;;20.40;59.60;;;;;;5016379;28;20045;-52
2022/08/21 07:55:08;;;;;;;3.72;1.30;;;20.50;59.80;;;;;;5010048;28;20092;-52
2022/08/21 07:57:34;;;;;;;5.22;1.70;;;20.50;59.80;;;;;;5022837;28;20100;-49
2022/08/21 08:00:04;;;;;;;2.67;1.50;;;20.60;60.10;;;;;;5010696;28;20068;-51
2022/08/21 08:02:37;;;;;;;4.07;1.42;;;20.70;59.60;;;;;;5015997;28;20391;-51
2022/08/21 08:05:07;;;;;;;3.90;1.80;;;20.80;59.30;;;;;;5021370;28;20100;-48
2022/08/21 08:07:34;;;;;;;2.95;1.48;;;20.90;59.60;;;;;;5018670;28;20065;-50
2022/08/21 08:10:03;;;;;;;3.83;1.38;;;20.90;59.30;;;;;;5015485;28;20041;-48
2022/08/21 08:12:29;;;;;;;4.63;1.30;;;21.00;59.40;;;;;;5009411;28;20049;-47
2022/08/21 08:14:57;;;;;;;4.60;1.63;;;21.10;59.50;;;;;;5015013;28;20095;-47
2022/08/21 08:17:25;;;;;;;4.93;1.92;;;21.20;59.30;;;;;;5009167;28;20506;-47
2022/08/21 08:19:52;;;;;;;1.90;1.58;;;21.20;59.00;;;;;;5011868;28;20045;-50
2022/08/21 08:22:23;;;;;;;3.03;1.40;;;21.30;58.60;;;;;;5012258;28;20099;-49
2022/08/21 08:24:51;;;;;;;6.40;3.22;;;21.40;58.60;;;;;;5007958;28;20572;-50
2022/08/21 08:27:18;;;;;;;4.07;1.38;;;21.40;58.50;;;;;;5019627;28;20038;-49
2022/08/21 08:29:48;;;;;;;3.95;1.88;;;21.50;58.70;;;;;;5021949;28;20033;-48
2022/08/21 08:32:15;;;;;;;4.68;2.15;;;21.50;58.50;;;;;;5010101;28;20038;-47
2022/08/21 08:34:46;;;;;;;2.17;1.17;;;21.50;57.70;;;;;;5019618;28;20038;-51
2022/08/21 08:37:13;;;;;;;2.42;1.02;;;21.60;57.50;;;;;;5021169;28;20065;-52
2022/08/21 08:39:42;;;;;;;3.70;1.05;;;21.60;57.10;;;;;;5031575;28;20056;-47
2022/08/21 08:42:14;;;;;;;4.30;1.73;;;21.60;57.00;;;;;;5016073;28;20477;-48
2022/08/21 08:45:10;;;;;;;1.85;1.08;;;21.70;56.70;;;;;;5011109;28;20046;-49
2022/08/21 08:47:42;;;;;;;7.60;1.13;;;21.70;57.00;;;;;;5022336;28;20045;-48
2022/08/21 08:50:23;;;;;;;4.23;0.77;;;21.80;57.00;;;;;;5031985;28;20041;-47
2022/08/21 08:52:57;;;;;;;;;;;21.90;56.60;;;;;;5017664;28;20443;-47
2022/08/21 08:55:37;;;;;;;3.85;1.00;;;22.00;57.00;;;;;;5012542;28;20008;-51
2022/08/21 08:58:09;;;;;;;4.20;0.80;;;22.10;56.30;;;;;;5023235;28;20049;-47
2022/08/21 09:00:39;;;;;;;1.35;0.73;;;22.10;56.20;;;;;;5011473;28;20042;-51
2022/08/21 09:03:05;;;;;;;1.25;0.70;;;22.20;55.80;;;;;;5018829;28;20111;-47
2022/08/21 09:05:46;;;;;;;2.67;0.88;;;22.30;55.80;;;;;;5022818;28;20083;-51
2022/08/21 09:08:26;;;;;;;3.30;0.80;;;22.40;55.30;;;;;;5030267;28;20126;-50
2022/08/21 09:11:00;;;;;;;2.25;0.80;;;22.50;55.50;;;;;;5016648;28;20057;-50
2022/08/21 09:14:06;;;;;;;3.78;0.95;;;22.60;54.80;;;;;;5013646;28;20095;-50
2022/08/21 09:16:39;;;;;;;2.90;0.88;;;22.80;54.40;;;;;;5019279;28;20053;-46
2022/08/21 09:19:24;;;;;;;2.03;0.90;;;22.90;54.30;;;;;;5006568;28;20050;-51
2022/08/21 09:22:36;;;;;;;3.47;1.00;;;22.90;54.40;;;;;;5013875;28;20564;-46
2022/08/21 09:25:38;;;;;;;3.55;1.13;;;23.00;54.10;;;;;;5017615;28;20045;-48
2022/08/21 09:28:12;;;;;;;3.28;1.10;;;23.10;53.40;;;;;;5008876;28;20443;-48
2022/08/21 09:30:40;;;;;;;2.13;0.80;;;23.10;53.70;;;;;;5011920;28;20045;-51
2022/08/21 09:33:11;;;;;;;1.38;0.93;;;23.10;53.80;;;;;;5029031;28;20071;-47
2022/08/21 09:35:52;;;;;;;3.67;1.17;;;23.20;53.70;;;;;;5017413;28;20049;-49
2022/08/21 09:38:31;;;;;;;3.70;1.33;;;23.20;53.20;;;;;;5008623;28;20096;-48
2022/08/21 09:41:04;;;;;;;2.53;0.75;;;23.20;53.50;;;;;;5013892;28;20081;-50
2022/08/21 09:43:31;;;;;;;;;;;23.20;53.40;;;;;;4997595;28;20053;-47
2022/08/21 09:46:05;;;;;;;3.60;0.95;;;23.40;53.70;;;;;;5009094;28;19975;-51
2022/08/21 09:48:47;;;;;;;2.92;1.10;;;23.40;53.80;;;;;;5029755;28;20045;-51
2022/08/21 09:51:24;;;;;;;2.28;1.40;;;23.40;53.70;;;;;;5010300;28;20398;-51
2022/08/21 09:54:18;;;;;;;3.72;0.80;;;23.50;53.00;;;;;;5021626;28;20080;-50
2022/08/21 10:00:17;;;;;;;2.63;0.90;;;23.60;52.10;;;;;;5003417;28;20046;-48
2022/08/21 10:02:44;;;;;;;1.00;0.75;;;23.60;51.90;;;;;;5008843;28;20045;-50
2022/08/21 10:05:22;;;;;;;7.95;1.55;;;23.60;52.20;;;;;;5009413;28;20121;-48
2022/08/21 10:07:50;;;;;;;2.10;0.80;;;23.70;51.50;;;;;;5004899;28;20054;-50
2022/08/21 10:10:29;;;;;;;2.80;0.85;;;23.70;52.20;;;;;;5015496;28;20076;-48
2022/08/21 10:13:13;;;;;;;2.75;0.98;;;23.70;52.40;;;;;;5020175;28;20045;-47
2022/08/21 10:16:12;;;;;;;3.67;1.23;;;23.70;52.30;;;;;;5006489;28;20085;-48
2022/08/21 10:19:01;;;;;;;1.52;0.80;;;23.70;51.90;;;;;;5005913;28;20041;-50
2022/08/21 10:21:56;;;;;;;3.30;0.95;;;23.80;51.70;;;;;;5019011;28;20129;-47
2022/08/21 10:24:32;;;;;;;3.97;0.70;;;23.80;51.60;;;;;;5000967;28;20141;-49
2022/08/21 10:27:12;;;;;;;1.33;1.08;;;23.90;51.70;;;;;;5003533;28;20041;-48
2022/08/21 10:29:47;;;;;;;2.10;1.55;;;24.00;51.40;;;;;;5020680;28;20045;-51
2022/08/21 10:32:31;;;;;;;1.70;0.80;;;24.10;51.40;;;;;;5030305;28;20041;-50
2022/08/21 10:35:20;;;;;;;3.17;0.90;;;24.20;51.80;;;;;;5013996;28;20050;-47
2022/08/21 10:38:14;;;;;;;3.53;1.20;;;24.30;50.90;;;;;;5022322;28;20038;-52
2022/08/21 10:41:06;;;;;;;4.00;1.30;;;24.40;50.70;;;;;;5025444;28;20661;-49
2022/08/21 10:44:10;;;;;;;2.45;0.70;;;24.50;49.80;;;;;;5031277;28;20525;-49
2022/08/21 10:46:48;;;;;;;2.28;0.85;;;24.50;49.10;;;;;;5012058;28;20088;-49
2022/08/21 10:49:30;;;;;;;4.20;0.90;;;24.60;50.10;;;;;;5023286;28;20046;-49
2022/08/21 10:52:32;;;;;;;3.45;0.90;;;24.60;48.80;;;;;;5032349;28;20464;-51
2022/08/21 10:55:24;;;;;;;1.15;0.80;;;24.70;48.80;;;;;;5011428;28;20050;-53
2022/08/21 10:57:58;;;;;;;3.13;1.00;;;24.80;49.40;;;;;;5009902;28;20410;-50
2022/08/21 11:00:32;;;;;;;;;;;24.90;50.10;;;;;;5006980;28;20046;-52
2022/08/21 11:03:13;;;;;;;1.27;0.80;;;25.00;50.40;;;;;;5021463;28;19929;-49
2022/08/21 11:05:49;;;;;;;2.55;0.85;;;25.20;49.60;;;;;;5032926;28;20116;-48
2022/08/21 11:08:39;;;;;;;4.28;1.20;;;25.10;48.60;;;;;;5020967;28;20042;-51
2022/08/21 11:11:14;;;;;;;;;;;25.20;48.60;;;;;;5023750;28;20080;-53
2022/08/21 11:14:00;;;;;;;4.20;1.00;;;25.30;49.50;;;;;;5006659;28;19921;-50
2022/08/21 11:16:46;;;;;;;1.35;0.98;;;25.40;48.80;;;;;;5012282;28;20042;-51
2022/08/21 11:19:26;;;;;;;4.63;1.30;;;25.50;48.10;;;;;;5013919;28;20042;-52
2022/08/21 11:21:56;;;;;;;4.03;1.23;;;25.60;47.30;;;;;;5026029;28;20051;-50
2022/08/21 11:24:44;;;;;;;0.95;0.57;;;25.70;47.50;;;;;;5010730;28;20059;-49
2022/08/21 11:27:31;;;;;;;3.60;1.35;;;25.70;46.40;;;;;;5025762;28;20053;-53
2022/08/21 11:30:00;;;;;;;2.33;1.13;;;25.80;46.50;;;;;;5028594;28;20056;-52
2022/08/21 11:33:04;;;;;;;1.70;0.82;;;25.80;47.00;;;;;;5009421;28;20038;-48
2022/08/21 11:35:36;;;;;;;2.17;1.00;;;25.80;46.80;;;;;;5008241;28;20105;-53
2022/08/21 11:38:24;;;;;;;1.60;1.00;;;25.80;46.70;;;;;;5003889;28;20037;-54
2022/08/21 11:41:02;;;;;;;1.65;0.82;;;25.80;46.80;;;;;;5008870;28;20056;-53
2022/08/21 11:43:31;;;;;;;3.40;1.00;;;25.90;46.50;;;;;;5014349;28;20049;-52
2022/08/21 11:46:22;;;;;;;2.75;0.90;;;26.00;46.70;;;;;;5021356;28;20042;-53
2022/08/21 11:49:20;;;;;;;0.70;0.60;;;26.10;46.80;;;;;;5029614;28;20037;-49
2022/08/21 11:52:09;;;;;;;1.85;0.90;;;26.20;45.70;;;;;;5009068;28;20123;-49
2022/08/21 11:54:47;;;;;;;4.63;1.38;;;26.20;46.00;;;;;;5010937;28;20046;-50
2022/08/21 11:57:22;;;;;;;2.38;0.90;;;26.30;46.00;;;;;;5011332;28;20575;-51
2022/08/21 12:00:16;;;;;;;2.00;0.80;;;26.40;45.60;;;;;;5021652;28;20533;-49
2022/08/21 12:02:50;;;;;;;3.30;0.90;;;26.50;45.50;;;;;;5021222;28;20060;-51
2022/08/21 12:05:32;;;;;;;4.13;1.30;;;26.50;44.40;;;;;;5023252;28;20046;-49
2022/08/21 12:08:46;;;;;;;2.03;0.90;;;26.50;44.30;;;;;;5019123;28;20050;-51
2022/08/21 12:11:19;;;;;;;2.67;0.70;;;26.70;44.80;;;;;;5013293;28;20054;-50
2022/08/21 12:14:00;;;;;;;1.60;1.15;;;26.80;45.10;;;;;;5022361;28;20053;-52
2022/08/21 12:16:38;;;;;;;2.70;0.88;;;26.90;44.20;;;;;;5019189;28;20042;-53
2022/08/21 12:19:14;;;;;;;3.08;0.80;;;26.90;44.20;;;;;;5009387;28;20037;-53
2022/08/21 12:21:56;;;;;;;4.20;1.20;;;27.00;44.10;;;;;;5018736;28;20060;-49
2022/08/21 12:24:26;;;;;;;3.25;1.58;;;27.10;43.60;;;;;;5010679;28;20042;-49
2022/08/21 12:26:59;;;;;;;3.22;0.80;;;27.10;43.60;;;;;;5009898;28;20100;-51
2022/08/21 12:29:31;;;;;;;2.38;0.82;;;27.20;43.00;;;;;;5007591;28;20038;-48
2022/08/21 12:32:18;;;;;;;3.65;0.80;;;27.30;43.00;;;;;;5019133;28;20046;-51
2022/08/21 12:34:53;;;;;;;2.47;1.05;;;27.30;43.00;;;;;;5010436;28;20048;-52
2022/08/21 12:37:40;;;;;;;2.60;0.93;;;27.40;43.50;;;;;;5013267;28;20417;-49
2022/08/21 12:40:16;;;;;;;1.65;0.50;;;27.40;43.30;;;;;;5019556;28;20061;-48
2022/08/21 12:42:49;;;;;;;1.90;0.80;;;27.50;42.70;;;;;;5015208;28;20054;-52
2022/08/21 12:45:31;;;;;;;2.65;0.80;;;27.60;42.00;;;;;;5017049;28;20592;-51
2022/08/21 12:48:16;;;;;;;2.80;1.00;;;27.70;42.50;;;;;;5016151;28;20099;-52
2022/08/21 12:50:52;;;;;;;3.85;0.98;;;27.70;42.10;;;;;;5021648;28;20088;-49
2022/08/21 12:53:31;;;;;;;2.47;1.25;;;27.70;41.90;;;;;;5031059;28;20049;-51
2022/08/21 12:56:03;;;;;;;0.95;0.65;;;27.70;42.10;;;;;;5018661;28;20042;-51
2022/08/21 12:58:31;;;;;;;1.83;0.75;;;27.80;41.50;;;;;;5023128;28;20055;-52
2022/08/21 13:01:09;;;;;;;3.38;1.08;;;27.70;42.10;;;;;;5021959;28;20490;-51
2022/08/21 13:03:38;;;;;;;1.25;0.80;;;27.70;41.70;;;;;;5030767;28;20410;-50
2022/08/21 13:06:06;;;;;;;1.50;0.70;;;27.80;42.30;;;;;;5017761;28;20383;-50
2022/08/21 13:08:38;;;;;;;2.13;0.70;;;27.80;42.00;;;;;;5021164;28;20042;-50
2022/08/21 13:11:17;;;;;;;1.00;0.57;;;27.80;41.50;;;;;;5029222;28;20053;-51
2022/08/21 13:14:01;;;;;;;1.92;0.68;;;27.90;41.90;;;;;;5010944;28;20046;-52
2022/08/21 13:16:31;;;;;;;2.60;0.70;;;28.00;41.60;;;;;;5015493;28;20136;-51
2022/08/21 13:19:05;;;;;;;1.30;0.77;;;28.00;41.50;;;;;;5009913;28;20104;-51
2022/08/21 13:21:38;;;;;;;3.55;1.15;;;28.10;41.10;;;;;;5008263;28;20820;-50